createdAt,value
2017-03-05T00:00:17.793Z,8.23
2017-03-05T00:01:28.117Z,8.28
2017-03-05T00:02:38.024Z,8.25
2017-03-05T00:03:48.669Z,8.3
2017-03-05T00:04:58.554Z,8.3
2017-03-05T00:06:08.477Z,8.32
2017-03-05T00:07:19.020Z,8.48
2017-03-05T00:08:29.344Z,8.43
2017-03-05T00:09:39.927Z,8.58
2017-03-05T00:10:50.240Z,8.6
2017-03-05T00:12:00.551Z,8.61
2017-03-05T00:13:10.468Z,8.63
2017-03-05T00:14:20.516Z,8.6
2017-03-05T00:15:31.098Z,8.68
2017-03-05T00:16:41.410Z,8.71
2017-03-05T00:17:51.769Z,8.83
2017-03-05T00:19:02.090Z,8.79
2017-03-05T00:20:12.548Z,8.9
2017-03-05T00:21:23.103Z,8.92
2017-03-05T00:22:33.528Z,8.89
2017-03-05T00:23:43.857Z,8.93
2017-03-05T00:24:54.183Z,8.9
2017-03-05T00:26:04.594Z,8.87
2017-03-05T00:27:15.147Z,9
2017-03-05T00:28:25.112Z,9.05
2017-03-05T00:29:35.471Z,9.04
2017-03-05T00:30:45.384Z,8.93
2017-03-05T00:31:55.725Z,9.04
2017-03-05T00:33:06.316Z,9.04
2017-03-05T00:34:16.230Z,9
2017-03-05T00:35:26.146Z,9.02
2017-03-05T00:36:36.066Z,9.02
2017-03-05T00:37:45.593Z,9.02
2017-03-05T00:38:55.854Z,9.15
2017-03-05T00:40:05.745Z,9.09
2017-03-05T00:41:16.081Z,9.07
2017-03-05T00:42:26.393Z,9.02
2017-03-05T00:43:36.867Z,9.04
2017-03-05T00:44:47.147Z,9.02
2017-03-05T00:45:57.079Z,9.04
2017-03-05T00:47:07.479Z,9.15
2017-03-05T00:48:17.860Z,9.09
2017-03-05T00:49:28.197Z,9.12
2017-03-05T00:50:38.787Z,9.09
2017-03-05T00:51:49.102Z,9.12
2017-03-05T00:52:59.401Z,9.11
2017-03-05T00:54:09.321Z,9.11
2017-03-05T00:55:19.186Z,9.07
2017-03-05T00:56:29.740Z,9.12
2017-03-05T00:57:40.058Z,9.11
2017-03-05T00:58:50.378Z,9.05
2017-03-05T01:00:00.739Z,9.01
2017-03-05T01:01:11.069Z,9
2017-03-05T01:02:21.650Z,9
2017-03-05T01:03:31.947Z,8.89
2017-03-05T01:04:42.233Z,8.89
2017-03-05T01:05:52.627Z,8.9
2017-03-05T01:07:02.567Z,8.89
2017-03-05T01:08:12.737Z,8.87
2017-03-05T01:09:23.247Z,8.87
2017-03-05T01:10:33.556Z,8.89
2017-03-05T01:11:43.951Z,8.84
2017-03-05T01:12:53.947Z,8.95
2017-03-05T01:14:03.689Z,8.92
2017-03-05T01:15:14.015Z,8.9
2017-03-05T01:16:24.451Z,8.89
2017-03-05T01:17:34.372Z,8.89
2017-03-05T01:18:44.304Z,8.77
2017-03-05T01:19:54.869Z,8.74
2017-03-05T01:21:05.203Z,8.82
2017-03-05T01:22:15.544Z,8.71
2017-03-05T01:23:25.550Z,8.67
2017-03-05T01:24:35.444Z,8.71
2017-03-05T01:25:46.141Z,8.71
2017-03-05T01:26:56.540Z,8.6
2017-03-05T01:28:06.990Z,8.58
2017-03-05T01:29:17.341Z,8.63
2017-03-05T01:30:27.627Z,8.63
2017-03-05T01:31:37.399Z,8.58
2017-03-05T01:32:47.804Z,8.52
2017-03-05T01:33:58.091Z,8.57
2017-03-05T01:35:08.369Z,8.48
2017-03-05T01:36:18.246Z,8.52
2017-03-05T01:37:27.970Z,8.5
2017-03-05T01:38:38.368Z,8.46
2017-03-05T01:39:48.645Z,8.49
2017-03-05T01:40:59.301Z,8.5
2017-03-05T01:42:09.164Z,8.49
2017-03-05T01:43:19.962Z,8.5
2017-03-05T01:44:30.263Z,8.61
2017-03-05T01:45:40.606Z,8.52
2017-03-05T01:46:50.924Z,8.53
2017-03-05T01:48:00.824Z,8.42
2017-03-05T01:49:11.375Z,8.37
2017-03-05T01:50:21.683Z,8.39
2017-03-05T01:51:32.021Z,8.37
2017-03-05T01:52:42.450Z,8.37
2017-03-05T01:53:52.352Z,8.25
2017-03-05T01:55:02.880Z,8.28
2017-03-05T01:56:12.782Z,8.21
2017-03-05T01:57:23.079Z,8.17
2017-03-05T01:58:32.573Z,8.17
2017-03-05T01:59:42.520Z,8.24
2017-03-05T02:00:53.044Z,8.24
2017-03-05T02:02:03.328Z,8.2
2017-03-05T02:03:13.615Z,8.2
2017-03-05T02:04:23.903Z,8.17
2017-03-05T02:05:34.251Z,8.24
2017-03-05T02:06:44.842Z,8.21
2017-03-05T02:07:55.117Z,8.13
2017-03-05T02:09:05.465Z,8.16
2017-03-05T02:10:15.773Z,8.15
2017-03-05T02:11:26.053Z,8.12
2017-03-05T02:12:36.559Z,8.1
2017-03-05T02:13:46.921Z,8.12
2017-03-05T02:14:57.191Z,8.13
2017-03-05T02:16:07.477Z,8.21
2017-03-05T02:17:17.365Z,8.17
2017-03-05T02:18:27.984Z,8.23
2017-03-05T02:19:38.358Z,8.17
2017-03-05T02:20:48.734Z,8.2
2017-03-05T02:21:59.187Z,8.12
2017-03-05T02:23:09.468Z,8.12
2017-03-05T02:24:19.644Z,8.15
2017-03-05T02:25:29.942Z,8.1
2017-03-05T02:26:39.518Z,8.16
2017-03-05T02:27:50.099Z,8.21
2017-03-05T02:29:00.427Z,8.17
2017-03-05T02:30:11.005Z,8.2
2017-03-05T02:31:20.565Z,8.27
2017-03-05T02:32:30.881Z,8.27
2017-03-05T02:33:41.161Z,8.25
2017-03-05T02:34:51.053Z,8.32
2017-03-05T02:36:01.274Z,8.27
2017-03-05T02:37:11.727Z,8.24
2017-03-05T02:38:21.846Z,8.3
2017-03-05T02:39:31.754Z,8.25
2017-03-05T02:40:41.754Z,8.15
2017-03-05T02:41:52.271Z,8.24
2017-03-05T02:43:02.633Z,8.13
2017-03-05T02:44:12.561Z,8.21
2017-03-05T02:45:22.030Z,8.17
2017-03-05T02:46:32.355Z,8.09
2017-03-05T02:47:42.537Z,8.09
2017-03-05T02:48:52.857Z,7.97
2017-03-05T02:50:02.880Z,8.06
2017-03-05T02:51:12.899Z,8.06
2017-03-05T02:52:22.971Z,8.06
2017-03-05T02:53:33.777Z,8.05
2017-03-05T02:54:44.088Z,7.98
2017-03-05T02:55:54.379Z,7.98
2017-03-05T02:57:04.256Z,7.99
2017-03-05T02:58:14.196Z,7.98
2017-03-05T02:59:24.747Z,8.02
2017-03-05T03:00:34.275Z,7.85
2017-03-05T03:01:44.205Z,7.88
2017-03-05T03:02:54.518Z,7.85
2017-03-05T03:04:04.447Z,7.82
2017-03-05T03:05:14.645Z,7.88
2017-03-05T03:06:24.945Z,7.87
2017-03-05T03:07:34.868Z,7.84
2017-03-05T03:08:44.790Z,7.84
2017-03-05T03:09:55.392Z,7.79
2017-03-05T03:11:05.524Z,7.82
2017-03-05T03:12:15.844Z,7.76
2017-03-05T03:13:26.145Z,7.74
2017-03-05T03:14:36.467Z,7.77
2017-03-05T03:15:46.855Z,7.79
2017-03-05T03:16:57.441Z,7.76
2017-03-05T03:18:07.744Z,7.7
2017-03-05T03:19:18.062Z,7.76
2017-03-05T03:20:28.387Z,7.59
2017-03-05T03:21:38.683Z,7.72
2017-03-05T03:22:49.238Z,7.61
2017-03-05T03:23:59.163Z,7.64
2017-03-05T03:25:09.480Z,7.66
2017-03-05T03:26:19.398Z,7.64
2017-03-05T03:27:29.702Z,7.66
2017-03-05T03:28:40.272Z,7.69
2017-03-05T03:29:50.139Z,7.58
2017-03-05T03:31:00.452Z,7.56
2017-03-05T03:32:10.372Z,7.52
2017-03-05T03:33:20.390Z,7.59
2017-03-05T03:34:30.976Z,7.59
2017-03-05T03:35:40.896Z,7.58
2017-03-05T03:36:51.286Z,7.59
2017-03-05T03:38:01.145Z,7.62
2017-03-05T03:39:11.563Z,7.62
2017-03-05T03:40:21.696Z,7.58
2017-03-05T03:41:31.767Z,7.54
2017-03-05T03:42:41.677Z,7.58
2017-03-05T03:43:51.982Z,7.56
2017-03-05T03:45:02.282Z,7.62
2017-03-05T03:46:12.824Z,7.61
2017-03-05T03:47:23.137Z,7.61
2017-03-05T03:48:33.069Z,7.59
2017-03-05T03:49:42.957Z,7.59
2017-03-05T03:50:53.252Z,7.59
2017-03-05T03:52:02.644Z,7.59
2017-03-05T03:53:12.603Z,7.61
2017-03-05T03:54:22.924Z,7.61
2017-03-05T03:55:32.551Z,7.54
2017-03-05T03:56:42.889Z,7.55
2017-03-05T03:57:53.443Z,7.66
2017-03-05T03:59:03.794Z,7.62
2017-03-05T04:00:13.775Z,7.7
2017-03-05T04:01:23.655Z,7.73
2017-03-05T04:02:33.133Z,7.74
2017-03-05T04:03:43.656Z,7.64
2017-03-05T04:04:53.949Z,7.76
2017-03-05T04:06:04.217Z,7.79
2017-03-05T04:07:14.631Z,7.7
2017-03-05T04:08:24.716Z,7.73
2017-03-05T04:09:35.246Z,7.8
2017-03-05T04:10:44.748Z,7.85
2017-03-05T04:11:55.091Z,7.88
2017-03-05T04:13:05.403Z,7.82
2017-03-05T04:14:15.697Z,7.77
2017-03-05T04:15:26.315Z,7.82
2017-03-05T04:16:36.616Z,7.82
2017-03-05T04:17:46.098Z,7.85
2017-03-05T04:18:55.971Z,7.84
2017-03-05T04:20:06.286Z,7.85
2017-03-05T04:21:16.847Z,7.97
2017-03-05T04:22:27.191Z,7.82
2017-03-05T04:23:37.243Z,7.91
2017-03-05T04:24:47.596Z,7.94
2017-03-05T04:25:57.993Z,7.9
2017-03-05T04:27:08.169Z,7.88
2017-03-05T04:28:18.054Z,7.97
2017-03-05T04:29:27.550Z,7.87
2017-03-05T04:30:37.826Z,7.92
2017-03-05T04:31:48.150Z,7.85
2017-03-05T04:32:58.383Z,7.9
2017-03-05T04:34:08.691Z,7.88
2017-03-05T04:35:18.995Z,7.91
2017-03-05T04:36:29.280Z,8.02
2017-03-05T04:37:39.579Z,7.92
2017-03-05T04:38:50.092Z,7.99
2017-03-05T04:40:00.479Z,7.94
2017-03-05T04:41:10.342Z,7.97
2017-03-05T04:42:20.653Z,7.92
2017-03-05T04:43:30.991Z,7.87
2017-03-05T04:44:41.158Z,7.97
2017-03-05T04:45:51.022Z,7.91
2017-03-05T04:47:01.542Z,7.97
2017-03-05T04:48:11.897Z,7.91
2017-03-05T04:49:22.218Z,7.84
2017-03-05T04:50:32.332Z,7.94
2017-03-05T04:51:42.225Z,7.9
2017-03-05T04:52:52.533Z,7.84
2017-03-05T04:54:02.814Z,7.9
2017-03-05T04:55:13.110Z,7.84
2017-03-05T04:56:23.239Z,7.79
2017-03-05T04:57:33.609Z,7.84
2017-03-05T04:58:43.930Z,7.84
2017-03-05T04:59:54.306Z,7.77
2017-03-05T05:01:04.192Z,7.82
2017-03-05T05:02:14.323Z,7.84
2017-03-05T05:03:24.618Z,7.77
2017-03-05T05:04:34.998Z,7.77
2017-03-05T05:05:44.918Z,7.79
2017-03-05T05:06:55.273Z,7.79
2017-03-05T05:08:05.795Z,7.82
2017-03-05T05:09:16.090Z,7.84
2017-03-05T05:10:26.474Z,7.82
2017-03-05T05:11:36.363Z,7.82
2017-03-05T05:12:46.655Z,7.82
2017-03-05T05:13:56.984Z,7.84
2017-03-05T05:15:07.302Z,7.87
2017-03-05T05:16:17.664Z,7.9
2017-03-05T05:17:27.591Z,7.74
2017-03-05T05:18:37.882Z,7.82
2017-03-05T05:19:48.047Z,7.73
2017-03-05T05:20:58.403Z,7.69
2017-03-05T05:22:08.397Z,7.67
2017-03-05T05:23:18.738Z,7.61
2017-03-05T05:24:29.114Z,7.52
2017-03-05T05:25:39.336Z,7.52
2017-03-05T05:26:49.328Z,7.52
2017-03-05T05:27:59.632Z,7.48
2017-03-05T05:29:10.075Z,7.33
2017-03-05T05:30:20.431Z,7.4
2017-03-05T05:31:30.605Z,7.39
2017-03-05T05:32:40.486Z,7.34
2017-03-05T05:33:50.770Z,7.52
2017-03-05T05:35:01.161Z,7.54
2017-03-05T05:36:11.670Z,7.52
2017-03-05T05:37:21.990Z,7.48
2017-03-05T05:38:32.285Z,7.48
2017-03-05T05:39:42.156Z,7.48
2017-03-05T05:40:52.512Z,7.44
2017-03-05T05:42:02.927Z,7.41
2017-03-05T05:43:13.459Z,7.4
2017-03-05T05:44:23.753Z,7.28
2017-03-05T05:45:34.056Z,7.26
2017-03-05T05:46:44.396Z,7.31
2017-03-05T05:47:54.747Z,7.31
2017-03-05T05:49:05.296Z,7.29
2017-03-05T05:50:15.201Z,7.26
2017-03-05T05:51:25.479Z,7.26
2017-03-05T05:52:35.821Z,7.34
2017-03-05T05:53:45.724Z,7.29
2017-03-05T05:54:56.125Z,7.37
2017-03-05T05:56:06.166Z,7.39
2017-03-05T05:57:16.064Z,7.47
2017-03-05T05:58:26.371Z,7.47
2017-03-05T05:59:35.981Z,7.33
2017-03-05T06:00:46.511Z,7.49
2017-03-05T06:01:57.029Z,7.47
2017-03-05T06:03:07.319Z,7.52
2017-03-05T06:04:17.653Z,7.47
2017-03-05T06:05:28.157Z,7.44
2017-03-05T06:06:38.713Z,7.34
2017-03-05T06:07:49.076Z,7.43
2017-03-05T06:08:59.337Z,7.43
2017-03-05T06:10:09.728Z,7.34
2017-03-05T06:11:19.636Z,7.43
2017-03-05T06:12:30.282Z,7.43
2017-03-05T06:13:40.239Z,7.44
2017-03-05T06:14:50.550Z,7.47
2017-03-05T06:16:00.876Z,7.39
2017-03-05T06:17:10.770Z,7.34
2017-03-05T06:18:20.989Z,7.44
2017-03-05T06:19:30.483Z,7.44
2017-03-05T06:20:40.804Z,7.47
2017-03-05T06:21:50.705Z,7.41
2017-03-05T06:23:01.130Z,7.43
2017-03-05T06:24:11.328Z,7.43
2017-03-05T06:25:21.641Z,7.43
2017-03-05T06:26:31.527Z,7.47
2017-03-05T06:27:41.427Z,7.51
2017-03-05T06:28:51.782Z,7.41
2017-03-05T06:30:02.356Z,7.47
2017-03-05T06:31:12.272Z,7.41
2017-03-05T06:32:21.788Z,7.34
2017-03-05T06:33:31.712Z,7.33
2017-03-05T06:34:42.032Z,7.43
2017-03-05T06:35:52.559Z,7.4
2017-03-05T06:37:02.860Z,7.44
2017-03-05T06:38:12.834Z,7.55
2017-03-05T06:39:23.111Z,7.56
2017-03-05T06:40:32.254Z,7.56
2017-03-05T06:41:42.774Z,7.56
2017-03-05T06:42:52.298Z,7.59
2017-03-05T06:44:02.634Z,7.61
2017-03-05T06:45:12.562Z,7.54
2017-03-05T06:46:22.880Z,7.52
2017-03-05T06:47:33.083Z,7.49
2017-03-05T06:48:42.593Z,7.49
2017-03-05T06:49:52.888Z,7.36
2017-03-05T06:51:03.169Z,7.31
2017-03-05T06:52:13.041Z,7.26
2017-03-05T06:53:23.157Z,7.28
2017-03-05T06:54:33.062Z,7.24
2017-03-05T06:55:43.431Z,7.33
2017-03-05T06:56:53.312Z,7.21
2017-03-05T06:58:03.248Z,7.24
2017-03-05T06:59:13.495Z,7.21
2017-03-05T07:00:23.853Z,7.22
2017-03-05T07:01:34.165Z,7.21
2017-03-05T07:02:44.496Z,7.28
2017-03-05T07:03:54.464Z,7.31
2017-03-05T07:05:05.023Z,7.31
2017-03-05T07:06:15.444Z,7.33
2017-03-05T07:07:25.725Z,7.37
2017-03-05T07:08:35.633Z,7.39
2017-03-05T07:09:45.537Z,7.43
2017-03-05T07:10:56.057Z,7.51
2017-03-05T07:12:06.363Z,7.59
2017-03-05T07:13:16.704Z,7.7
2017-03-05T07:14:26.235Z,7.7
2017-03-05T07:15:36.598Z,7.74
2017-03-05T07:16:47.140Z,7.72
2017-03-05T07:17:57.469Z,7.72
2017-03-05T07:19:07.773Z,7.77
2017-03-05T07:20:17.259Z,7.76
2017-03-05T07:21:27.141Z,7.72
2017-03-05T07:22:37.691Z,7.74
2017-03-05T07:23:47.607Z,7.73
2017-03-05T07:24:57.487Z,7.77
2017-03-05T07:26:07.951Z,7.8
2017-03-05T07:27:17.530Z,7.9
2017-03-05T07:28:28.099Z,7.79
2017-03-05T07:29:38.400Z,7.84
2017-03-05T07:30:48.911Z,7.82
2017-03-05T07:31:59.279Z,7.8
2017-03-05T07:33:09.625Z,7.76
2017-03-05T07:34:20.221Z,7.8
2017-03-05T07:35:30.494Z,7.85
2017-03-05T07:36:40.802Z,7.85
2017-03-05T07:37:50.688Z,7.82
2017-03-05T07:39:00.997Z,7.88
2017-03-05T07:40:11.770Z,7.84
2017-03-05T07:41:22.101Z,7.74
2017-03-05T07:42:32.379Z,7.88
2017-03-05T07:43:42.724Z,7.84
2017-03-05T07:44:53.126Z,7.76
2017-03-05T07:46:03.694Z,7.92
2017-03-05T07:47:14.168Z,8.42
2017-03-05T07:48:25.222Z,8.82
2017-03-05T07:49:36.238Z,9.11
2017-03-05T07:50:47.460Z,9.26
2017-03-05T07:51:58.107Z,9.44
2017-03-05T07:53:08.021Z,9.38
2017-03-05T07:54:17.675Z,9.4
2017-03-05T07:55:27.967Z,9.44
2017-03-05T07:56:38.326Z,9.4
2017-03-05T07:57:48.492Z,9.44
2017-03-05T07:58:58.379Z,9.26
2017-03-05T08:00:08.294Z,9.22
2017-03-05T08:01:18.202Z,9.04
2017-03-05T08:02:28.611Z,8.97
2017-03-05T08:03:39.150Z,8.8
2017-03-05T08:04:49.483Z,8.67
2017-03-05T08:05:59.848Z,8.68
2017-03-05T08:07:10.165Z,8.52
2017-03-05T08:08:20.066Z,8.48
2017-03-05T08:09:30.291Z,8.42
2017-03-05T08:10:40.216Z,8.28
2017-03-05T08:11:50.095Z,8.24
2017-03-05T08:13:00.392Z,8.17
2017-03-05T08:14:10.678Z,8.2
2017-03-05T08:15:21.252Z,8.07
2017-03-05T08:16:31.749Z,8.15
2017-03-05T08:17:42.065Z,8.13
2017-03-05T08:18:51.986Z,8.13
2017-03-05T08:20:02.397Z,8.21
2017-03-05T08:21:12.950Z,8.23
2017-03-05T08:22:23.229Z,8.17
2017-03-05T08:23:33.563Z,8.2
2017-03-05T08:24:43.876Z,8.09
2017-03-05T08:25:53.784Z,8.17
2017-03-05T08:27:03.923Z,8.21
2017-03-05T08:28:14.259Z,8.15
2017-03-05T08:29:24.592Z,8.16
2017-03-05T08:30:34.934Z,8.1
2017-03-05T08:31:44.896Z,8.15
2017-03-05T08:32:55.493Z,8.16
2017-03-05T08:34:06.511Z,8.58
2017-03-05T08:35:17.501Z,9.44
2017-03-05T08:36:28.103Z,10.24
2017-03-05T08:37:39.169Z,11.12
2017-03-05T08:38:49.882Z,12.09
2017-03-05T08:40:00.557Z,12.81
2017-03-05T08:41:10.369Z,13.34
2017-03-05T08:42:20.853Z,13.76
2017-03-05T08:43:31.342Z,14.47
2017-03-05T08:44:41.876Z,14.99
2017-03-05T08:45:52.933Z,15.32
2017-03-05T08:47:04.229Z,15.55
2017-03-05T08:48:15.382Z,15.88
2017-03-05T08:49:26.028Z,15.91
2017-03-05T08:50:36.756Z,16.1
2017-03-05T08:51:47.405Z,16.42
2017-03-05T08:52:58.433Z,16.56
2017-03-05T08:54:09.133Z,16.89
2017-03-05T08:55:19.888Z,17.06
2017-03-05T08:56:30.769Z,17.11
2017-03-05T08:57:41.365Z,17.24
2017-03-05T08:58:51.480Z,17.2
2017-03-05T09:00:02.534Z,17.35
2017-03-05T09:01:12.645Z,17.58
2017-03-05T09:02:23.918Z,17.82
2017-03-05T09:03:34.594Z,18.01
2017-03-05T09:04:45.255Z,18.37
2017-03-05T09:05:55.908Z,18.56
2017-03-05T09:07:07.053Z,18.62
2017-03-05T09:08:18.328Z,18.87
2017-03-05T09:09:29.378Z,18.94
2017-03-05T09:10:40.432Z,19.02
2017-03-05T09:11:51.467Z,19.02
2017-03-05T09:13:02.004Z,19.09
2017-03-05T09:14:13.395Z,18.94
2017-03-05T09:15:24.477Z,18.97
2017-03-05T09:16:35.519Z,18.97
2017-03-05T09:17:46.620Z,19.18
2017-03-05T09:18:57.319Z,19.25
2017-03-05T09:20:08.224Z,19.23
2017-03-05T09:21:18.881Z,19.16
2017-03-05T09:22:29.992Z,19.21
2017-03-05T09:23:40.614Z,19.33
2017-03-05T09:24:51.301Z,19.34
2017-03-05T09:26:02.109Z,19.1
2017-03-05T09:27:13.511Z,18.31
2017-03-05T09:28:24.570Z,18.19
2017-03-05T09:29:35.624Z,18.1
2017-03-05T09:30:46.702Z,18.3
2017-03-05T09:31:58.070Z,18.15
2017-03-05T09:33:09.136Z,18.28
2017-03-05T09:34:20.179Z,17.94
2017-03-05T09:35:29.969Z,17.89
2017-03-05T09:36:40.601Z,17.28
2017-03-05T09:37:51.545Z,17.12
2017-03-05T09:39:02.150Z,16.74
2017-03-05T09:40:12.792Z,16.28
2017-03-05T09:41:23.424Z,16.43
2017-03-05T09:42:34.488Z,16.56
2017-03-05T09:43:45.845Z,16.36
2017-03-05T09:44:56.898Z,16.46
2017-03-05T09:46:07.395Z,16.47
2017-03-05T09:47:18.456Z,16.69
2017-03-05T09:48:29.584Z,17.05
2017-03-05T09:49:40.974Z,16.94
2017-03-05T09:50:51.608Z,17.08
2017-03-05T09:52:02.273Z,16.96
2017-03-05T09:53:12.682Z,16.47
2017-03-05T09:54:23.756Z,15.89
2017-03-05T09:55:35.059Z,15.89
2017-03-05T09:56:45.686Z,15.58
2017-03-05T09:57:56.419Z,15.25
2017-03-05T09:59:07.437Z,14.56
2017-03-05T10:00:18.481Z,14.16
2017-03-05T10:01:29.392Z,13.79
2017-03-05T10:02:39.375Z,13.36
2017-03-05T10:03:49.382Z,13.06
2017-03-05T10:04:59.779Z,12.74
2017-03-05T10:06:09.672Z,12.45
2017-03-05T10:07:20.249Z,12.19
2017-03-05T10:08:30.346Z,11.87
2017-03-05T10:09:40.762Z,11.72
2017-03-05T10:10:51.099Z,11.34
2017-03-05T10:12:01.152Z,11.13
2017-03-05T10:13:11.851Z,10.88
2017-03-05T10:14:22.173Z,10.7
2017-03-05T10:15:32.206Z,10.58
2017-03-05T10:16:42.559Z,10.43
2017-03-05T10:17:52.834Z,10.26
2017-03-05T10:19:03.398Z,10.34
2017-03-05T10:20:13.697Z,10.21
2017-03-05T10:21:23.612Z,10.13
2017-03-05T10:22:33.923Z,10.3
2017-03-05T10:23:44.300Z,10.26
2017-03-05T10:24:55.591Z,10.79
2017-03-05T10:26:06.673Z,11.16
2017-03-05T10:27:17.326Z,11.69
2017-03-05T10:28:27.224Z,11.77
2017-03-05T10:29:37.523Z,11.79
2017-03-05T10:30:47.656Z,12.01
2017-03-05T10:31:58.076Z,12.05
2017-03-05T10:33:08.430Z,12.11
2017-03-05T10:34:18.351Z,12.04
2017-03-05T10:35:28.613Z,11.97
2017-03-05T10:36:38.793Z,12.23
2017-03-05T10:37:48.752Z,12.26
2017-03-05T10:38:57.933Z,12.34
2017-03-05T10:40:08.295Z,12.34
2017-03-05T10:41:18.670Z,12.52
2017-03-05T10:42:28.023Z,12.42
2017-03-05T10:43:39.049Z,12.6
2017-03-05T10:44:49.671Z,12.84
2017-03-05T10:46:00.696Z,13.19
2017-03-05T10:47:11.707Z,13.59
2017-03-05T10:48:23.022Z,14.1
2017-03-05T10:49:34.195Z,14.5
2017-03-05T10:50:45.244Z,14.98
2017-03-05T10:51:56.367Z,15.3
2017-03-05T10:53:07.430Z,15.38
2017-03-05T10:54:18.774Z,15.53
2017-03-05T10:55:29.501Z,15.89
2017-03-05T10:56:40.106Z,16.34
2017-03-05T10:57:50.708Z,16.35
2017-03-05T10:59:01.758Z,16.31
2017-03-05T11:00:12.628Z,15.82
2017-03-05T11:01:22.828Z,15.68
2017-03-05T11:02:33.866Z,15.8
2017-03-05T11:03:44.423Z,15.95
2017-03-05T11:04:55.045Z,15.96
2017-03-05T11:06:05.705Z,15.73
2017-03-05T11:07:16.025Z,15.42
2017-03-05T11:08:25.942Z,15.02
2017-03-05T11:09:35.860Z,14.66
2017-03-05T11:10:46.176Z,14.11
2017-03-05T11:11:56.362Z,13.66
2017-03-05T11:13:05.443Z,13
2017-03-05T11:14:15.759Z,12.57
2017-03-05T11:15:26.103Z,12.27
2017-03-05T11:16:36.394Z,12.04
2017-03-05T11:17:46.120Z,11.82
2017-03-05T11:18:55.655Z,11.69
2017-03-05T11:20:06.193Z,11.59
2017-03-05T11:21:16.535Z,11.64
2017-03-05T11:22:27.062Z,11.62
2017-03-05T11:23:37.638Z,11.48
2017-03-05T11:24:48.033Z,11.38
2017-03-05T11:25:58.355Z,11.31
2017-03-05T11:27:08.652Z,11.39
2017-03-05T11:28:19.033Z,11.42
2017-03-05T11:29:29.639Z,11.35
2017-03-05T11:30:39.957Z,11.31
2017-03-05T11:31:49.900Z,11.39
2017-03-05T11:32:59.991Z,11.25
2017-03-05T11:34:09.905Z,11.25
2017-03-05T11:35:20.486Z,11
2017-03-05T11:36:30.412Z,10.98
2017-03-05T11:37:40.757Z,10.9
2017-03-05T11:38:50.645Z,10.79
2017-03-05T11:40:00.658Z,10.85
2017-03-05T11:41:11.250Z,10.85
2017-03-05T11:42:21.247Z,10.79
2017-03-05T11:43:30.744Z,10.69
2017-03-05T11:44:40.677Z,10.7
2017-03-05T11:45:50.983Z,10.67
2017-03-05T11:47:01.570Z,10.69
2017-03-05T11:48:11.925Z,10.73
2017-03-05T11:49:21.984Z,10.73
2017-03-05T11:50:32.285Z,10.85
2017-03-05T11:51:42.603Z,10.84
2017-03-05T11:52:53.361Z,11.09
2017-03-05T11:54:04.434Z,11.48
2017-03-05T11:55:15.453Z,12.26
2017-03-05T11:56:25.915Z,12.68
2017-03-05T11:57:36.597Z,13.34
2017-03-05T11:58:47.480Z,14.06
2017-03-05T11:59:58.648Z,14.69
2017-03-05T12:01:09.782Z,14.96
2017-03-05T12:02:20.603Z,15.13
2017-03-05T12:03:31.288Z,15.18
2017-03-05T12:04:42.188Z,14.99
2017-03-05T12:05:52.501Z,14.78
2017-03-05T12:07:02.832Z,14.77
2017-03-05T12:08:13.237Z,14.54
2017-03-05T12:09:23.642Z,14.5
2017-03-05T12:10:34.293Z,14.44
2017-03-05T12:11:44.238Z,14.28
2017-03-05T12:12:54.688Z,14.4
2017-03-05T12:14:04.610Z,14.22
2017-03-05T12:15:15.090Z,14.16
2017-03-05T12:16:25.288Z,14.09
2017-03-05T12:17:35.192Z,14.1
2017-03-05T12:18:45.169Z,14.11
2017-03-05T12:19:55.092Z,14.28
2017-03-05T12:21:05.432Z,14.37
2017-03-05T12:22:15.675Z,14.34
2017-03-05T12:23:26.039Z,14.28
2017-03-05T12:24:35.951Z,14.21
2017-03-05T12:25:46.369Z,14.07
2017-03-05T12:26:56.310Z,14.06
2017-03-05T12:28:06.938Z,13.95
2017-03-05T12:29:16.481Z,13.84
2017-03-05T12:30:26.799Z,13.76
2017-03-05T12:31:36.708Z,13.59
2017-03-05T12:32:47.105Z,13.51
2017-03-05T12:33:57.297Z,13.16
2017-03-05T12:35:07.677Z,12.82
2017-03-05T12:36:17.611Z,12.35
2017-03-05T12:37:27.930Z,12.27
2017-03-05T12:38:37.838Z,12.11
2017-03-05T12:39:48.078Z,12.07
2017-03-05T12:40:58.470Z,12.09
2017-03-05T12:42:08.768Z,12.08
2017-03-05T12:43:19.130Z,12.05
2017-03-05T12:44:29.561Z,12.05
2017-03-05T12:45:40.188Z,12.19
2017-03-05T12:46:50.095Z,12.05
2017-03-05T12:48:00.522Z,12.02
2017-03-05T12:49:10.828Z,12.01
2017-03-05T12:50:21.219Z,11.98
2017-03-05T12:51:31.766Z,11.95
2017-03-05T12:52:40.920Z,11.83
2017-03-05T12:53:50.450Z,11.8
2017-03-05T12:55:00.529Z,11.77
2017-03-05T12:56:10.860Z,11.83
2017-03-05T12:57:21.445Z,11.89
2017-03-05T12:58:31.879Z,11.8
2017-03-05T12:59:42.269Z,11.9
2017-03-05T13:00:52.663Z,12.09
2017-03-05T13:02:02.593Z,12.08
2017-03-05T13:03:13.168Z,12.17
2017-03-05T13:04:23.478Z,12.16
2017-03-05T13:05:33.447Z,12.09
2017-03-05T13:06:43.368Z,12.17
2017-03-05T13:07:53.268Z,12.01
2017-03-05T13:09:04.005Z,11.99
2017-03-05T13:10:14.355Z,12.13
2017-03-05T13:11:24.689Z,12.05
2017-03-05T13:12:34.601Z,12.05
2017-03-05T13:13:44.900Z,12.09
2017-03-05T13:14:55.522Z,12.04
2017-03-05T13:16:05.872Z,11.83
2017-03-05T13:17:16.171Z,11.65
2017-03-05T13:18:26.079Z,11.48
2017-03-05T13:19:36.357Z,11.48
2017-03-05T13:20:46.903Z,11.52
2017-03-05T13:21:57.207Z,11.42
2017-03-05T13:23:07.682Z,11.45
2017-03-05T13:24:17.625Z,11.48
2017-03-05T13:25:27.961Z,11.38
2017-03-05T13:26:38.326Z,11.15
2017-03-05T13:27:48.793Z,11
2017-03-05T13:28:59.146Z,10.85
2017-03-05T13:30:09.090Z,10.79
2017-03-05T13:31:19.036Z,10.7
2017-03-05T13:32:29.744Z,10.66
2017-03-05T13:33:40.048Z,10.58
2017-03-05T13:34:50.420Z,10.55
2017-03-05T13:36:00.723Z,10.55
2017-03-05T13:37:11.085Z,10.58
2017-03-05T13:38:21.667Z,10.54
2017-03-05T13:39:31.668Z,10.51
2017-03-05T13:40:41.570Z,10.59
2017-03-05T13:41:51.849Z,10.5
2017-03-05T13:43:01.350Z,10.45
2017-03-05T13:44:11.533Z,10.57
2017-03-05T13:45:21.412Z,10.5
2017-03-05T13:46:30.916Z,10.43
2017-03-05T13:47:40.871Z,10.26
2017-03-05T13:48:50.831Z,10.3
2017-03-05T13:50:01.404Z,10.34
2017-03-05T13:51:11.769Z,10.27
2017-03-05T13:52:22.154Z,10.3
2017-03-05T13:53:32.453Z,10.3
2017-03-05T13:54:42.982Z,10.22
2017-03-05T13:55:53.165Z,10.27
2017-03-05T13:57:03.121Z,10.32
2017-03-05T13:58:12.853Z,10.22
2017-03-05T13:59:23.210Z,10.33
2017-03-05T14:00:33.165Z,10.29
2017-03-05T14:01:43.909Z,10.34
2017-03-05T14:02:54.303Z,10.33
2017-03-05T14:04:04.279Z,10.33
2017-03-05T14:05:13.857Z,10.34
2017-03-05T14:06:23.793Z,10.29
2017-03-05T14:07:34.387Z,10.37
2017-03-05T14:08:44.362Z,10.36
2017-03-05T14:09:54.732Z,10.4
2017-03-05T14:11:04.668Z,10.5
2017-03-05T14:12:15.102Z,10.42
2017-03-05T14:13:25.752Z,10.37
2017-03-05T14:14:36.114Z,10.29
2017-03-05T14:15:46.475Z,10.32
2017-03-05T14:16:57.009Z,10.3
2017-03-05T14:18:06.941Z,10.27
2017-03-05T14:19:17.570Z,10.3
2017-03-05T14:20:27.934Z,10.22
2017-03-05T14:21:38.356Z,10.17
2017-03-05T14:22:48.274Z,10.15
2017-03-05T14:23:58.549Z,9.98
2017-03-05T14:25:08.813Z,10.05
2017-03-05T14:26:19.253Z,10
2017-03-05T14:27:28.791Z,10.1
2017-03-05T14:28:39.122Z,10
2017-03-05T14:29:49.456Z,10.19
2017-03-05T14:30:59.183Z,10.1
2017-03-05T14:32:09.585Z,10.22
2017-03-05T14:33:19.487Z,10.13
2017-03-05T14:34:29.514Z,10.1
2017-03-05T14:35:39.471Z,10
2017-03-05T14:36:49.664Z,10.05
2017-03-05T14:37:59.605Z,10.07
2017-03-05T14:39:09.989Z,10.02
2017-03-05T14:40:19.537Z,9.95
2017-03-05T14:41:29.907Z,9.92
2017-03-05T14:42:40.125Z,9.96
2017-03-05T14:43:50.481Z,9.89
2017-03-05T14:45:00.847Z,9.89
2017-03-05T14:46:10.786Z,9.99
2017-03-05T14:47:21.099Z,9.96
2017-03-05T14:48:31.708Z,10
2017-03-05T14:49:42.046Z,9.93
2017-03-05T14:50:51.974Z,9.92
2017-03-05T14:52:01.919Z,9.85
2017-03-05T14:53:11.482Z,9.84
2017-03-05T14:54:22.096Z,9.83
2017-03-05T14:55:32.456Z,9.84
2017-03-05T14:56:42.788Z,9.8
2017-03-05T14:57:53.145Z,9.77
2017-03-05T14:59:03.065Z,9.78
2017-03-05T15:00:13.647Z,9.88
2017-03-05T15:01:23.945Z,9.88
2017-03-05T15:02:34.270Z,9.92
2017-03-05T15:03:44.198Z,9.96
2017-03-05T15:04:54.141Z,9.92
2017-03-05T15:06:04.857Z,9.93
2017-03-05T15:07:14.786Z,9.91
2017-03-05T15:08:24.323Z,9.83
2017-03-05T15:09:34.695Z,9.77
2017-03-05T15:10:45.041Z,9.78
2017-03-05T15:11:55.659Z,9.73
2017-03-05T15:13:05.987Z,9.81
2017-03-05T15:14:16.299Z,9.84
2017-03-05T15:15:26.215Z,9.83
2017-03-05T15:16:36.145Z,9.88
2017-03-05T15:17:46.696Z,9.89
2017-03-05T15:18:56.624Z,9.99
2017-03-05T15:20:06.530Z,10.08
2017-03-05T15:21:16.454Z,10
2017-03-05T15:22:26.372Z,10.05
2017-03-05T15:23:36.926Z,9.99
2017-03-05T15:24:46.893Z,10.11
2017-03-05T15:25:56.789Z,10
2017-03-05T15:27:06.718Z,9.99